createdAt,value
2022-12-03T00:00:00.316Z,0.00
2022-12-03T00:01:00.285Z,0.00
2022-12-03T00:02:00.268Z,0.00
2022-12-03T00:03:00.366Z,0.00
2022-12-03T00:04:00.461Z,0.00
2022-12-03T00:05:00.259Z,0.00
2022-12-03T00:06:00.214Z,0.00
2022-12-03T00:07:00.206Z,0.00
2022-12-03T00:08:00.250Z,0.00
2022-12-03T00:09:00.204Z,0.00
2022-12-03T00:10:00.176Z,0.00
2022-12-03T00:11:00.154Z,0.00
2022-12-03T00:12:00.143Z,0.00
2022-12-03T00:13:00.141Z,0.00
2022-12-03T00:14:00.137Z,0.00
2022-12-03T00:15:00.142Z,0.00
2022-12-03T00:16:00.219Z,0.00
2022-12-03T00:17:00.082Z,0.00
2022-12-03T00:18:00.084Z,0.00
2022-12-03T00:19:00.070Z,0.00
2022-12-03T00:20:00.140Z,0.00
2022-12-03T00:21:00.016Z,0.00
2022-12-03T00:22:00.002Z,0.00
2022-12-03T00:22:59.997Z,0.00
2022-12-03T00:23:59.975Z,0.00
2022-12-03T00:25:00.030Z,0.00
2022-12-03T00:25:59.951Z,0.00
2022-12-03T00:26:59.942Z,0.00
2022-12-03T00:27:59.925Z,0.00
2022-12-03T00:28:59.921Z,0.00
2022-12-03T00:29:59.925Z,0.00
2022-12-03T00:30:59.939Z,0.00
2022-12-03T00:31:59.864Z,0.00
2022-12-03T00:32:59.874Z,0.00
2022-12-03T00:33:59.846Z,0.00
2022-12-03T00:34:59.826Z,0.00
2022-12-03T00:35:59.839Z,0.00
2022-12-03T00:36:59.804Z,0.00
2022-12-03T00:37:59.782Z,0.00
2022-12-03T00:38:59.777Z,0.00
2022-12-03T00:39:59.777Z,0.00
2022-12-03T00:40:59.783Z,0.00
2022-12-03T00:41:59.756Z,0.00
2022-12-03T00:42:59.724Z,0.00
2022-12-03T00:43:59.712Z,0.00
2022-12-03T00:44:59.696Z,0.00
2022-12-03T00:45:59.791Z,0.00
2022-12-03T00:46:59.702Z,0.00
2022-12-03T00:47:59.652Z,0.00
2022-12-03T00:48:59.678Z,0.00
2022-12-03T00:49:59.624Z,0.00
2022-12-03T00:50:59.665Z,0.00
2022-12-03T00:51:59.595Z,0.00
2022-12-03T00:52:59.586Z,0.00
2022-12-03T00:53:59.564Z,0.00
2022-12-03T00:54:59.566Z,0.00
2022-12-03T00:55:59.585Z,0.00
2022-12-03T00:56:59.562Z,0.00
2022-12-03T00:57:59.526Z,0.00
2022-12-03T00:58:59.505Z,0.00
2022-12-03T00:59:59.495Z,0.00
2022-12-03T01:00:59.508Z,0.00
2022-12-03T01:01:59.493Z,0.00
2022-12-03T01:02:59.472Z,0.00
2022-12-03T01:03:59.438Z,0.00
2022-12-03T01:04:59.507Z,0.00
2022-12-03T01:05:59.434Z,0.00
2022-12-03T01:06:59.397Z,0.00
2022-12-03T01:07:59.423Z,0.00
2022-12-03T01:08:59.386Z,0.00
2022-12-03T01:09:59.407Z,0.00
2022-12-03T01:10:59.356Z,0.00
2022-12-03T01:11:59.342Z,0.00
2022-12-03T01:12:59.317Z,0.00
2022-12-03T01:13:59.304Z,0.00
2022-12-03T01:14:59.296Z,0.00
2022-12-03T01:15:59.379Z,0.00
2022-12-03T01:16:59.267Z,0.00
2022-12-03T01:17:59.258Z,0.00
2022-12-03T01:18:59.246Z,0.00
2022-12-03T01:19:59.226Z,0.00
2022-12-03T01:20:59.227Z,0.00
2022-12-03T01:21:59.205Z,0.00
2022-12-03T01:22:59.185Z,0.00
2022-12-03T01:23:59.179Z,0.00
2022-12-03T01:24:59.165Z,0.00
2022-12-03T01:25:59.165Z,0.00
2022-12-03T01:26:59.135Z,0.00
2022-12-03T01:27:59.120Z,0.00
2022-12-03T01:28:59.095Z,0.00
2022-12-03T01:29:59.086Z,0.00
2022-12-03T01:30:59.240Z,0.00
2022-12-03T01:31:59.078Z,0.00
2022-12-03T01:32:59.049Z,0.00
2022-12-03T01:33:59.036Z,0.00
2022-12-03T01:34:59.028Z,0.00
2022-12-03T01:35:59.037Z,0.00
2022-12-03T01:36:58.988Z,0.00
2022-12-03T01:37:58.987Z,0.00
2022-12-03T01:38:58.983Z,0.00
2022-12-03T01:39:58.959Z,0.00
2022-12-03T01:40:58.960Z,0.00
2022-12-03T01:41:58.946Z,0.00
2022-12-03T01:42:58.914Z,0.00
2022-12-03T01:43:58.914Z,0.00
2022-12-03T01:44:58.894Z,0.00
2022-12-03T01:45:58.897Z,0.00
2022-12-03T01:46:58.934Z,0.00
2022-12-03T01:47:58.857Z,0.00
2022-12-03T01:48:58.835Z,0.00
2022-12-03T01:49:58.826Z,0.00
2022-12-03T01:50:58.843Z,0.00
2022-12-03T01:51:58.806Z,0.00
2022-12-03T01:52:58.787Z,0.00
2022-12-03T01:53:58.768Z,0.00
2022-12-03T01:54:58.757Z,0.00
2022-12-03T01:55:58.760Z,0.00
2022-12-03T01:56:58.727Z,0.00
2022-12-03T01:57:58.718Z,0.00
2022-12-03T01:58:58.704Z,0.00
2022-12-03T01:59:58.707Z,0.00
2022-12-03T02:00:58.690Z,0.00
2022-12-03T02:01:58.683Z,0.00
2022-12-03T02:02:58.647Z,0.00
2022-12-03T02:03:58.714Z,0.00
2022-12-03T02:04:58.627Z,0.00
2022-12-03T02:05:58.629Z,0.00
2022-12-03T02:06:58.596Z,0.00
2022-12-03T02:07:58.645Z,0.00
2022-12-03T02:08:58.568Z,0.00
2022-12-03T02:09:58.556Z,0.00
2022-12-03T02:10:58.577Z,0.00
2022-12-03T02:11:58.542Z,0.00
2022-12-03T02:12:58.507Z,0.00
2022-12-03T02:13:58.505Z,0.00
2022-12-03T02:14:58.486Z,0.00
2022-12-03T02:15:58.529Z,0.00
2022-12-03T02:16:58.474Z,0.00
2022-12-03T02:17:58.448Z,0.00
2022-12-03T02:18:58.427Z,0.00
2022-12-03T02:19:58.436Z,0.00
2022-12-03T02:20:58.436Z,0.00
2022-12-03T02:21:58.397Z,0.00
2022-12-03T02:22:58.377Z,0.00
2022-12-03T02:23:58.376Z,0.00
2022-12-03T02:24:58.356Z,0.00
2022-12-03T02:25:58.366Z,0.00
2022-12-03T02:26:58.347Z,0.00
2022-12-03T02:27:58.316Z,0.00
2022-12-03T02:28:58.315Z,0.00
2022-12-03T02:29:58.290Z,0.00
2022-12-03T02:30:58.332Z,0.00
2022-12-03T02:31:58.327Z,0.00
2022-12-03T02:32:58.246Z,0.00
2022-12-03T02:33:58.259Z,0.00
2022-12-03T02:34:58.215Z,0.00
2022-12-03T02:36:03.337Z,0.00
2022-12-03T02:36:59.207Z,0.00
2022-12-03T02:37:58.178Z,0.00
2022-12-03T02:38:58.167Z,0.00
2022-12-03T02:39:58.149Z,0.00
2022-12-03T02:40:58.147Z,0.00
2022-12-03T02:41:58.148Z,0.00
2022-12-03T02:42:58.109Z,0.00
2022-12-03T02:43:58.097Z,0.00
2022-12-03T02:45:03.505Z,0.00
2022-12-03T02:45:59.089Z,0.00
2022-12-03T02:46:58.147Z,0.00
2022-12-03T02:47:58.047Z,0.00
2022-12-03T02:48:58.058Z,0.00
2022-12-03T02:49:58.031Z,0.00
2022-12-03T02:50:58.007Z,0.00
2022-12-03T02:51:58.014Z,0.00
2022-12-03T02:52:57.976Z,0.00
2022-12-03T02:53:57.967Z,0.00
2022-12-03T02:54:57.958Z,0.00
2022-12-03T02:55:57.938Z,0.00
2022-12-03T02:56:57.948Z,0.00
2022-12-03T02:57:57.910Z,0.00
2022-12-03T02:58:57.918Z,0.00
2022-12-03T02:59:57.888Z,0.00
2022-12-03T03:00:57.930Z,0.00
2022-12-03T03:01:57.934Z,0.00
2022-12-03T03:02:57.837Z,0.00
2022-12-03T03:03:57.831Z,0.00
2022-12-03T03:04:57.807Z,0.00
2022-12-03T03:05:57.806Z,0.00
2022-12-03T03:06:57.807Z,0.00
2022-12-03T03:07:57.830Z,0.00
2022-12-03T03:08:57.769Z,0.00
2022-12-03T03:09:57.748Z,0.00
2022-12-03T03:10:57.738Z,0.00
2022-12-03T03:11:57.750Z,0.00
2022-12-03T03:12:57.708Z,0.00
2022-12-03T03:13:57.697Z,0.00
2022-12-03T03:14:57.679Z,0.00
2022-12-03T03:15:57.707Z,0.00
2022-12-03T03:16:57.690Z,0.00
2022-12-03T03:17:57.657Z,0.00
2022-12-03T03:18:57.629Z,0.00
2022-12-03T03:19:57.617Z,0.00
2022-12-03T03:20:57.607Z,0.00
2022-12-03T03:21:57.609Z,0.00
2022-12-03T03:22:57.584Z,0.00
2022-12-03T03:23:57.568Z,0.00
2022-12-03T03:24:57.558Z,0.00
2022-12-03T03:25:57.538Z,0.00
2022-12-03T03:26:57.536Z,0.00
2022-12-03T03:27:57.531Z,0.00
2022-12-03T03:28:57.497Z,0.00
2022-12-03T03:29:57.481Z,0.00
2022-12-03T03:30:57.483Z,0.00
2022-12-03T03:31:57.540Z,0.00
2022-12-03T03:32:57.449Z,0.00
2022-12-03T03:33:57.469Z,0.00
2022-12-03T03:34:57.428Z,0.00
2022-12-03T03:35:57.415Z,0.00
2022-12-03T03:36:57.405Z,0.00
2022-12-03T03:37:57.387Z,0.00
2022-12-03T03:38:57.372Z,0.00
2022-12-03T03:39:57.349Z,0.00
2022-12-03T03:40:57.346Z,0.00
2022-12-03T03:43:07.156Z,0.00
2022-12-03T03:44:09.772Z,0.00
2022-12-03T03:45:07.112Z,0.00
2022-12-03T03:46:07.109Z,0.00
2022-12-03T03:47:07.163Z,0.00
2022-12-03T03:48:07.062Z,0.00
2022-12-03T03:49:07.053Z,0.00
2022-12-03T03:50:07.045Z,0.00
2022-12-03T03:51:07.020Z,0.00
2022-12-03T03:52:07.035Z,0.00
2022-12-03T03:53:06.993Z,0.00
2022-12-03T03:54:06.990Z,0.00
2022-12-03T03:55:06.973Z,0.00
2022-12-03T03:56:06.962Z,0.00
2022-12-03T03:57:06.962Z,0.00
2022-12-03T03:58:06.942Z,0.00
2022-12-03T03:59:06.917Z,0.00
2022-12-03T04:00:06.909Z,0.00
2022-12-03T04:01:06.998Z,0.00
2022-12-03T04:02:06.897Z,0.00
2022-12-03T04:03:06.864Z,0.00
2022-12-03T04:04:06.904Z,0.00
2022-12-03T04:05:06.841Z,0.00
2022-12-03T04:06:06.834Z,0.00
2022-12-03T04:07:06.834Z,0.00
2022-12-03T04:08:06.890Z,0.00
2022-12-03T04:09:06.782Z,0.00
2022-12-03T04:10:06.779Z,0.00
2022-12-03T04:11:06.763Z,0.00
2022-12-03T04:12:06.775Z,0.00
2022-12-03T04:13:06.737Z,0.00
2022-12-03T04:14:06.723Z,0.00
2022-12-03T04:15:06.704Z,0.00
2022-12-03T04:16:06.759Z,0.00
2022-12-03T04:17:06.702Z,0.00
2022-12-03T04:18:06.673Z,0.00
2022-12-03T04:19:06.652Z,0.00
2022-12-03T04:20:06.643Z,0.00
2022-12-03T04:21:06.633Z,0.00
2022-12-03T04:22:06.641Z,0.00
2022-12-03T04:23:06.604Z,0.00
2022-12-03T04:24:06.594Z,0.00
2022-12-03T04:25:06.573Z,0.00
2022-12-03T04:26:06.572Z,0.00
2022-12-03T04:27:06.574Z,0.00
2022-12-03T04:28:06.554Z,0.00
2022-12-03T04:29:06.547Z,0.00
2022-12-03T04:30:06.513Z,0.00
2022-12-03T04:31:06.611Z,0.00
2022-12-03T04:32:06.495Z,0.00
2022-12-03T04:33:06.503Z,0.00
2022-12-03T04:34:06.493Z,0.00
2022-12-03T04:35:06.504Z,0.00
2022-12-03T04:36:06.436Z,0.00
2022-12-03T04:37:06.432Z,0.00
2022-12-03T04:38:06.424Z,0.00
2022-12-03T04:39:06.398Z,0.00
2022-12-03T04:40:06.384Z,0.00
2022-12-03T04:41:06.379Z,0.00
2022-12-03T04:42:06.382Z,0.00
2022-12-03T04:43:06.365Z,0.00
2022-12-03T04:44:06.342Z,0.00
2022-12-03T04:45:06.325Z,0.00
2022-12-03T04:46:06.441Z,0.00
2022-12-03T04:47:06.293Z,0.00
2022-12-03T04:48:06.314Z,0.00
2022-12-03T04:49:06.263Z,0.00
2022-12-03T04:50:06.253Z,0.00
2022-12-03T04:51:06.243Z,0.00
2022-12-03T04:52:06.275Z,0.00
2022-12-03T04:53:06.253Z,0.00
2022-12-03T04:54:06.213Z,0.00
2022-12-03T04:55:06.184Z,0.00
2022-12-03T04:56:06.190Z,0.00
2022-12-03T04:57:06.154Z,0.00
2022-12-03T04:58:06.164Z,0.00
2022-12-03T04:59:08.067Z,0.00
2022-12-03T05:00:07.133Z,0.00
2022-12-03T05:01:06.242Z,0.00
2022-12-03T05:02:06.157Z,0.00
2022-12-03T05:03:06.195Z,0.00
2022-12-03T05:04:06.078Z,0.00
2022-12-03T05:05:06.056Z,0.00
2022-12-03T05:06:06.044Z,0.00
2022-12-03T05:07:06.023Z,0.00
2022-12-03T05:08:06.184Z,0.00
2022-12-03T05:09:06.009Z,0.00
2022-12-03T05:10:06.076Z,0.00
2022-12-03T05:11:05.983Z,0.00
2022-12-03T05:12:05.986Z,0.00
2022-12-03T05:13:05.964Z,0.00
2022-12-03T05:14:05.946Z,0.00
2022-12-03T05:15:05.924Z,0.00
2022-12-03T05:16:05.915Z,0.00
2022-12-03T05:17:05.934Z,0.00
2022-12-03T05:18:05.904Z,0.00
2022-12-03T05:19:05.875Z,0.00
2022-12-03T05:20:05.864Z,0.00
2022-12-03T05:21:05.845Z,0.00
2022-12-03T05:22:05.836Z,0.00
2022-12-03T05:23:05.843Z,0.00
2022-12-03T05:24:05.812Z,0.00
2022-12-03T05:25:05.793Z,0.00
2022-12-03T05:26:05.791Z,0.00
2022-12-03T05:27:05.769Z,0.00
2022-12-03T05:28:05.774Z,0.00
2022-12-03T05:29:05.754Z,0.00
2022-12-03T05:30:05.740Z,0.00
2022-12-03T05:31:05.776Z,0.00
2022-12-03T05:32:05.708Z,0.00
2022-12-03T05:33:05.707Z,0.00
2022-12-03T05:34:05.695Z,0.00
2022-12-03T05:35:05.663Z,0.00
2022-12-03T05:36:05.661Z,0.00
2022-12-03T05:37:05.633Z,0.00
2022-12-03T05:38:05.661Z,0.00
2022-12-03T05:39:05.616Z,0.00
2022-12-03T05:40:05.618Z,0.00
2022-12-03T05:41:05.584Z,0.00
2022-12-03T05:42:05.578Z,0.00
2022-12-03T05:43:05.586Z,0.00
2022-12-03T05:44:05.554Z,0.00
2022-12-03T05:45:05.537Z,0.00
2022-12-03T05:46:05.578Z,0.00
2022-12-03T05:47:05.513Z,0.00
2022-12-03T05:48:05.513Z,0.00
2022-12-03T05:49:05.486Z,0.00
2022-12-03T05:50:05.474Z,0.00
2022-12-03T05:51:05.464Z,0.00
2022-12-03T05:52:05.444Z,0.00
2022-12-03T05:53:05.474Z,0.00
2022-12-03T05:54:05.434Z,0.00
2022-12-03T05:55:05.413Z,0.00
2022-12-03T05:56:05.402Z,0.00
2022-12-03T05:57:05.386Z,0.00
2022-12-03T05:58:05.424Z,0.00
2022-12-03T05:59:05.375Z,0.00
2022-12-03T06:00:05.346Z,0.00
2022-12-03T06:01:05.327Z,0.00
2022-12-03T06:02:05.393Z,0.00
2022-12-03T06:03:05.422Z,0.00
2022-12-03T06:04:05.352Z,0.00
2022-12-03T06:05:05.275Z,0.00
2022-12-03T06:06:05.266Z,0.00
2022-12-03T06:07:09.606Z,0.00
2022-12-03T06:08:06.341Z,0.00
2022-12-03T06:09:05.255Z,0.00
2022-12-03T06:10:05.214Z,0.00
2022-12-03T06:11:05.213Z,0.00
2022-12-03T06:12:05.196Z,0.00
2022-12-03T06:13:05.175Z,0.00
2022-12-03T06:14:05.254Z,0.00
2022-12-03T06:15:05.155Z,0.00
2022-12-03T06:16:05.201Z,0.00
2022-12-03T06:17:05.128Z,0.00
2022-12-03T06:18:05.114Z,0.00
2022-12-03T06:19:05.114Z,0.00
2022-12-03T06:20:05.088Z,0.00
2022-12-03T06:21:05.077Z,0.00
2022-12-03T06:22:05.055Z,0.00
2022-12-03T06:23:05.035Z,0.00
2022-12-03T06:24:05.075Z,0.00
2022-12-03T06:25:07.090Z,0.00
2022-12-03T06:26:05.018Z,0.00
2022-12-03T06:27:04.995Z,0.00
2022-12-03T06:28:05.004Z,0.00
2022-12-03T06:29:04.975Z,0.00
2022-12-03T06:30:04.969Z,0.00
2022-12-03T06:31:04.984Z,0.00
2022-12-03T06:32:04.943Z,0.00
2022-12-03T06:33:04.933Z,0.00
2022-12-03T06:34:04.907Z,0.00
2022-12-03T06:35:04.894Z,0.00
2022-12-03T06:36:04.886Z,0.00
2022-12-03T06:37:04.863Z,0.00
2022-12-03T06:38:04.856Z,0.00
2022-12-03T06:39:04.848Z,0.00
2022-12-03T06:40:04.834Z,0.00
2022-12-03T06:41:04.805Z,0.00
2022-12-03T06:42:04.805Z,0.00
2022-12-03T06:43:04.803Z,0.00
2022-12-03T06:44:04.794Z,0.00
2022-12-03T06:45:04.764Z,0.00
2022-12-03T06:46:04.803Z,0.00
2022-12-03T06:47:04.742Z,0.00
2022-12-03T06:48:04.747Z,0.00
2022-12-03T06:49:04.732Z,4.00
2022-12-03T06:50:04.706Z,4.00
2022-12-03T06:51:04.685Z,0.00
2022-12-03T06:52:04.674Z,4.00
2022-12-03T06:53:04.655Z,8.00
2022-12-03T06:54:04.668Z,4.00
2022-12-03T06:55:04.629Z,8.00
2022-12-03T06:56:04.615Z,8.00
2022-12-03T06:57:04.605Z,8.00
2022-12-03T06:58:04.596Z,8.00
2022-12-03T06:59:04.594Z,12.00
2022-12-03T07:00:04.565Z,12.00
2022-12-03T07:01:04.544Z,12.00
2022-12-03T07:02:04.599Z,16.00
2022-12-03T07:03:04.582Z,16.00
2022-12-03T07:04:04.536Z,20.00
2022-12-03T07:05:04.496Z,24.00
2022-12-03T07:06:04.485Z,24.00
2022-12-03T07:07:04.470Z,28.00
2022-12-03T07:08:04.535Z,32.00
2022-12-03T07:09:04.495Z,36.00
2022-12-03T07:10:04.437Z,40.00
2022-12-03T07:11:04.426Z,44.00
2022-12-03T07:12:04.417Z,48.00
2022-12-03T07:13:04.436Z,52.00
2022-12-03T07:14:05.755Z,60.00
2022-12-03T07:15:04.367Z,64.00
2022-12-03T07:16:04.427Z,68.00
2022-12-03T07:17:04.344Z,76.00
2022-12-03T07:18:04.334Z,84.00
2022-12-03T07:19:04.338Z,88.00
2022-12-03T07:20:04.314Z,96.00
2022-12-03T07:21:04.284Z,104.00
2022-12-03T07:22:04.275Z,112.00
2022-12-03T07:23:04.264Z,116.00
2022-12-03T07:24:04.266Z,128.00
2022-12-03T07:25:04.237Z,136.00
2022-12-03T07:26:04.225Z,144.00
2022-12-03T07:27:04.208Z,152.00
2022-12-03T07:28:04.196Z,160.00
2022-12-03T07:29:04.207Z,168.00
2022-12-03T07:30:04.176Z,176.00
2022-12-03T07:31:04.193Z,188.00
2022-12-03T07:32:04.154Z,196.00
2022-12-03T07:33:04.126Z,208.00
2022-12-03T07:34:04.236Z,220.00
2022-12-03T07:35:04.106Z,228.00
2022-12-03T07:36:04.096Z,244.00
2022-12-03T07:37:04.076Z,256.00
2022-12-03T07:38:04.076Z,268.00
2022-12-03T07:39:04.066Z,280.00
2022-12-03T07:40:04.047Z,296.00
2022-12-03T07:41:04.028Z,308.00
2022-12-03T07:42:04.023Z,320.00
2022-12-03T07:43:04.004Z,328.00
2022-12-03T07:44:06.603Z,340.00
2022-12-03T07:45:04.976Z,356.00
2022-12-03T07:46:03.965Z,368.00
2022-12-03T07:47:03.977Z,384.00
2022-12-03T07:48:03.945Z,404.00
2022-12-03T07:49:03.965Z,420.00
2022-12-03T07:50:03.926Z,436.00
2022-12-03T07:51:03.911Z,448.00
2022-12-03T07:52:03.892Z,456.00
2022-12-03T07:53:03.888Z,468.00
2022-12-03T07:54:03.880Z,472.00
2022-12-03T07:55:03.855Z,484.00
2022-12-03T07:56:03.858Z,492.00
2022-12-03T07:57:03.818Z,504.00
2022-12-03T07:58:03.806Z,512.00
2022-12-03T07:59:03.838Z,524.00
2022-12-03T08:00:03.789Z,540.00
2022-12-03T08:01:03.872Z,552.00
2022-12-03T08:02:03.839Z,564.00
2022-12-03T08:03:03.749Z,580.00
2022-12-03T08:04:03.779Z,588.00
2022-12-03T08:05:03.715Z,600.00
2022-12-03T08:06:03.715Z,616.00
2022-12-03T08:07:03.693Z,624.00
2022-12-03T08:08:03.720Z,640.00
2022-12-03T08:09:03.707Z,656.00
2022-12-03T08:10:03.656Z,676.00
2022-12-03T08:11:03.647Z,684.00
2022-12-03T08:12:03.635Z,700.00
2022-12-03T08:13:03.617Z,716.00
2022-12-03T08:14:03.622Z,732.00
2022-12-03T08:15:03.586Z,748.00
2022-12-03T08:16:03.623Z,764.00
2022-12-03T08:17:03.740Z,772.00
2022-12-03T08:18:03.556Z,780.00
2022-12-03T08:19:03.552Z,784.00
2022-12-03T08:20:03.538Z,792.00
2022-12-03T08:21:03.517Z,792.00
2022-12-03T08:22:03.497Z,800.00
2022-12-03T08:23:03.488Z,800.00
2022-12-03T08:24:03.483Z,804.00
2022-12-03T08:25:03.458Z,816.00
2022-12-03T08:26:03.449Z,824.00
2022-12-03T08:27:03.436Z,836.00
2022-12-03T08:28:03.417Z,844.00
2022-12-03T08:29:03.417Z,848.00
2022-12-03T08:30:03.386Z,856.00
2022-12-03T08:31:03.386Z,864.00
2022-12-03T08:32:03.398Z,872.00
2022-12-03T08:33:03.420Z,868.00
2022-12-03T08:34:03.356Z,872.00
2022-12-03T08:35:03.326Z,884.00
2022-12-03T08:36:03.319Z,904.00
2022-12-03T08:37:03.307Z,940.00
2022-12-03T08:38:03.317Z,996.00
2022-12-03T08:39:03.317Z,1052.00
2022-12-03T08:40:03.277Z,1068.00
2022-12-03T08:41:03.256Z,1092.00
2022-12-03T08:42:03.246Z,1168.00
2022-12-03T08:43:03.245Z,1228.00
2022-12-03T08:44:03.227Z,1312.00
2022-12-03T08:45:03.214Z,1372.00
2022-12-03T08:46:03.256Z,1380.00
2022-12-03T08:47:03.177Z,1400.00
2022-12-03T08:48:03.164Z,1412.00
2022-12-03T08:49:03.163Z,1380.00
2022-12-03T08:50:03.136Z,1348.00
2022-12-03T08:51:03.118Z,1360.00
2022-12-03T08:52:03.127Z,1376.00
2022-12-03T08:53:03.116Z,1408.00
2022-12-03T08:54:03.099Z,1444.00
2022-12-03T08:55:03.074Z,1472.00
2022-12-03T08:56:03.055Z,1468.00
2022-12-03T08:57:03.045Z,1464.00
2022-12-03T08:58:03.032Z,1472.00
2022-12-03T08:59:03.048Z,1504.00
2022-12-03T09:00:03.017Z,1528.00
2022-12-03T09:01:03.011Z,1536.00
2022-12-03T09:02:03.008Z,1560.00
2022-12-03T09:03:03.006Z,1576.00
2022-12-03T09:04:03.125Z,1596.00
2022-12-03T09:05:02.967Z,1592.00
2022-12-03T09:06:02.940Z,1624.00
2022-12-03T09:07:02.916Z,1672.00
2022-12-03T09:08:03.007Z,1744.00
2022-12-03T09:09:06.759Z,1896.00
2022-12-03T09:10:02.876Z,2072.00
2022-12-03T09:11:02.867Z,2192.00
2022-12-03T09:12:02.850Z,2272.00
2022-12-03T09:13:02.836Z,2336.00
2022-12-03T09:14:02.864Z,2512.00
2022-12-03T09:15:02.826Z,2736.00
2022-12-03T09:16:02.798Z,3008.00
2022-12-03T09:17:02.843Z,3156.00
2022-12-03T09:18:02.778Z,3236.00
2022-12-03T09:19:02.777Z,3172.00
2022-12-03T09:20:02.756Z,3040.00
2022-12-03T09:21:02.745Z,2992.00
2022-12-03T09:22:02.720Z,2984.00
2022-12-03T09:23:02.717Z,2832.00
2022-12-03T09:24:02.707Z,2732.00
2022-12-03T09:25:02.707Z,2868.00
2022-12-03T09:26:02.667Z,2928.00
2022-12-03T09:27:02.667Z,2876.00
2022-12-03T09:28:02.648Z,2944.00
2022-12-03T09:29:06.343Z,3052.00
2022-12-03T09:30:03.635Z,3020.00
2022-12-03T09:31:02.610Z,2932.00
2022-12-03T09:32:02.629Z,2680.00
2022-12-03T09:33:02.579Z,2544.00
2022-12-03T09:34:02.569Z,2320.00
2022-12-03T09:35:02.594Z,2160.00
2022-12-03T09:36:02.538Z,1992.00
2022-12-03T09:37:02.527Z,1876.00
2022-12-03T09:38:02.509Z,1840.00
2022-12-03T09:39:02.521Z,1836.00
2022-12-03T09:40:02.477Z,1816.00
2022-12-03T09:41:02.478Z,1812.00
2022-12-03T09:42:02.458Z,1836.00
2022-12-03T09:43:09.481Z,1912.00
2022-12-03T09:44:04.422Z,1996.00
2022-12-03T09:45:02.420Z,2076.00
2022-12-03T09:46:02.432Z,2128.00
2022-12-03T09:47:02.401Z,2048.00
2022-12-03T09:48:02.376Z,2048.00
2022-12-03T09:49:02.383Z,2000.00
2022-12-03T09:50:02.357Z,1908.00
2022-12-03T09:51:02.348Z,1884.00
2022-12-03T09:52:02.320Z,1848.00
2022-12-03T09:53:02.323Z,1808.00
2022-12-03T09:54:02.313Z,1788.00
2022-12-03T09:55:02.291Z,1740.00
2022-12-03T09:56:02.276Z,1644.00
2022-12-03T09:57:02.270Z,1560.00
2022-12-03T09:58:02.243Z,1504.00
2022-12-03T09:59:02.252Z,1528.00
2022-12-03T10:00:02.233Z,1540.00
2022-12-03T10:01:02.258Z,1600.00
2022-12-03T10:02:02.301Z,1676.00
2022-12-03T10:03:02.182Z,1676.00
2022-12-03T10:04:02.275Z,1656.00
2022-12-03T10:05:02.220Z,1624.00
2022-12-03T10:06:02.141Z,1596.00
2022-12-03T10:07:02.121Z,1560.00
2022-12-03T10:08:02.193Z,1516.00
2022-12-03T10:09:02.127Z,1468.00
2022-12-03T10:10:02.084Z,1448.00
2022-12-03T10:11:02.077Z,1468.00
2022-12-03T10:12:02.061Z,1496.00
2022-12-03T10:13:02.052Z,1516.00
2022-12-03T10:14:02.051Z,1528.00
2022-12-03T10:15:02.022Z,1556.00
2022-12-03T10:16:02.010Z,1568.00
2022-12-03T10:17:02.056Z,1580.00
2022-12-03T10:18:01.988Z,1584.00
2022-12-03T10:19:01.981Z,1576.00
2022-12-03T10:20:01.961Z,1572.00
2022-12-03T10:21:01.942Z,1572.00
2022-12-03T10:22:01.932Z,1576.00
2022-12-03T10:23:01.916Z,1584.00
2022-12-03T10:24:01.924Z,1648.00
2022-12-03T10:25:01.893Z,1724.00
2022-12-03T10:26:01.873Z,1836.00
2022-12-03T10:27:01.868Z,1992.00
2022-12-03T10:28:01.841Z,2164.00
2022-12-03T10:29:01.853Z,2264.00
2022-12-03T10:30:01.821Z,2320.00
2022-12-03T10:31:01.871Z,2316.00
2022-12-03T10:32:01.804Z,2228.00
2022-12-03T10:33:01.786Z,2180.00
2022-12-03T10:34:01.773Z,2096.00
2022-12-03T10:35:01.769Z,2068.00
2022-12-03T10:36:01.735Z,2056.00
2022-12-03T10:37:01.734Z,2248.00
2022-12-03T10:38:01.716Z,2284.00
2022-12-03T10:39:01.713Z,2368.00
2022-12-03T10:40:01.685Z,2328.00
2022-12-03T10:41:01.682Z,2132.00
2022-12-03T10:42:01.664Z,2060.00
2022-12-03T10:43:01.654Z,1988.00
2022-12-03T10:44:01.655Z,1736.00
2022-12-03T10:45:01.634Z,1580.00
2022-12-03T10:46:04.278Z,1504.00
2022-12-03T10:47:01.697Z,1424.00
2022-12-03T10:48:01.581Z,1412.00
2022-12-03T10:49:01.591Z,1464.00
2022-12-03T10:50:01.552Z,1632.00
2022-12-03T10:51:01.546Z,1880.00
2022-12-03T10:52:01.522Z,2196.00
2022-12-03T10:53:01.525Z,2532.00
2022-12-03T10:54:01.550Z,2736.00
2022-12-03T10:55:01.499Z,2904.00
2022-12-03T10:56:01.481Z,2928.00
2022-12-03T10:57:01.492Z,2808.00
2022-12-03T10:58:01.460Z,2740.00
2022-12-03T10:59:01.461Z,2692.00
2022-12-03T11:00:01.429Z,2636.00
2022-12-03T11:01:01.473Z,2552.00
2022-12-03T11:02:01.472Z,2584.00
2022-12-03T11:03:01.391Z,2720.00
2022-12-03T11:04:01.465Z,2912.00
2022-12-03T11:05:01.369Z,3068.00
2022-12-03T11:06:01.345Z,3264.00
2022-12-03T11:07:01.335Z,3436.00
2022-12-03T11:08:01.365Z,3436.00
2022-12-03T11:09:05.417Z,3356.00
2022-12-03T11:10:02.291Z,3140.00
2022-12-03T11:11:01.277Z,2992.00
2022-12-03T11:12:01.264Z,2812.00
2022-12-03T11:13:01.255Z,2660.00
2022-12-03T11:14:01.255Z,2480.00
2022-12-03T11:15:01.238Z,2300.00
2022-12-03T11:16:01.262Z,2312.00
2022-12-03T11:17:01.205Z,2432.00
2022-12-03T11:18:01.190Z,2420.00
2022-12-03T11:19:01.229Z,2396.00
2022-12-03T11:20:01.166Z,2200.00
2022-12-03T11:21:01.170Z,2044.00
2022-12-03T11:22:01.139Z,2080.00
2022-12-03T11:23:01.124Z,2108.00
2022-12-03T11:24:01.131Z,2044.00
2022-12-03T11:25:01.108Z,1904.00
2022-12-03T11:26:01.090Z,1840.00
2022-12-03T11:27:01.074Z,1808.00
2022-12-03T11:28:01.055Z,1800.00
2022-12-03T11:29:01.057Z,1800.00
2022-12-03T11:30:01.065Z,1780.00
2022-12-03T11:31:01.120Z,1752.00
2022-12-03T11:32:00.998Z,1748.00
2022-12-03T11:33:00.995Z,1736.00
2022-12-03T11:34:00.994Z,1820.00
2022-12-03T11:35:00.972Z,1904.00
2022-12-03T11:36:00.951Z,1832.00
2022-12-03T11:37:02.098Z,1712.00
2022-12-03T11:38:00.928Z,1572.00
2022-12-03T11:39:00.927Z,1508.00
2022-12-03T11:40:00.906Z,1456.00
2022-12-03T11:41:00.898Z,1380.00
2022-12-03T11:42:00.876Z,1376.00
2022-12-03T11:43:00.865Z,1476.00
2022-12-03T11:44:00.869Z,1564.00
2022-12-03T11:45:00.837Z,1728.00
2022-12-03T11:46:04.186Z,1932.00
2022-12-03T11:47:00.866Z,2060.00
2022-12-03T11:48:00.790Z,2160.00
2022-12-03T11:49:00.804Z,2352.00
2022-12-03T11:50:00.766Z,2648.00
2022-12-03T11:51:00.756Z,3008.00
2022-12-03T11:52:00.751Z,3152.00
2022-12-03T11:53:00.729Z,3112.00
2022-12-03T11:54:00.737Z,3356.00
2022-12-03T11:55:00.705Z,3752.00
2022-12-03T11:56:04.327Z,3932.00
2022-12-03T11:57:00.679Z,3928.00
2022-12-03T11:58:00.661Z,3956.00
2022-12-03T11:59:00.657Z,3800.00
2022-12-03T12:00:00.637Z,4084.00
2022-12-03T12:01:00.629Z,4312.00
2022-12-03T12:02:00.613Z,3792.00
2022-12-03T12:03:00.641Z,3428.00
2022-12-03T12:04:00.683Z,3152.00
2022-12-03T12:05:00.574Z,2988.00
2022-12-03T12:06:00.556Z,2756.00
2022-12-03T12:07:00.555Z,2556.00
2022-12-03T12:08:00.579Z,2352.00
2022-12-03T12:09:00.551Z,2060.00
2022-12-03T12:10:00.506Z,1820.00
2022-12-03T12:11:00.498Z,1572.00
2022-12-03T12:12:00.477Z,1392.00
2022-12-03T12:13:00.473Z,1296.00
2022-12-03T12:14:00.465Z,1220.00
2022-12-03T12:15:00.450Z,1200.00
2022-12-03T12:16:00.452Z,1224.00
2022-12-03T12:17:00.419Z,1204.00
2022-12-03T12:18:00.406Z,1112.00
2022-12-03T12:19:00.398Z,1048.00
2022-12-03T12:20:00.674Z,1024.00
2022-12-03T12:21:00.357Z,996.00
2022-12-03T12:22:00.351Z,956.00
2022-12-03T12:23:00.336Z,920.00
2022-12-03T12:24:00.347Z,888.00
2022-12-03T12:25:00.310Z,828.00
2022-12-03T12:26:00.300Z,792.00
2022-12-03T12:27:00.281Z,760.00
2022-12-03T12:28:00.267Z,708.00
2022-12-03T12:29:00.282Z,688.00
2022-12-03T12:30:00.246Z,696.00
2022-12-03T12:31:00.271Z,720.00
2022-12-03T12:32:00.315Z,744.00
2022-12-03T12:33:00.214Z,760.00
2022-12-03T12:34:00.216Z,776.00
2022-12-03T12:35:00.168Z,784.00
2022-12-03T12:36:00.165Z,780.00
2022-12-03T12:37:00.156Z,796.00
2022-12-03T12:38:00.714Z,828.00
2022-12-03T12:39:00.145Z,836.00
2022-12-03T12:40:00.152Z,796.00
2022-12-03T12:41:00.089Z,748.00
2022-12-03T12:42:00.090Z,748.00
2022-12-03T12:43:00.105Z,812.00
2022-12-03T12:44:00.083Z,856.00
2022-12-03T12:45:00.037Z,836.00
2022-12-03T12:46:09.446Z,780.00
2022-12-03T12:47:01.168Z,788.00
2022-12-03T12:48:00.006Z,800.00
2022-12-03T12:49:00.161Z,812.00